createdAt,value
2023-03-26T00:00:45.844Z,0.5485
2023-03-26T00:01:52.880Z,0.5620
2023-03-26T00:02:59.821Z,0.5527
2023-03-26T00:04:06.893Z,0.5435
2023-03-26T00:05:13.786Z,0.5490
2023-03-26T00:06:20.795Z,0.5641
2023-03-26T00:07:27.750Z,0.5656
2023-03-26T00:08:34.769Z,0.5513
2023-03-26T00:09:41.707Z,0.5443
2023-03-26T00:10:48.706Z,0.5233
2023-03-26T00:11:55.703Z,0.5156
2023-03-26T00:13:02.716Z,0.5316
2023-03-26T00:14:09.652Z,0.5406
2023-03-26T00:15:16.642Z,0.5302
2023-03-26T00:16:23.639Z,0.5160
2023-03-26T00:17:30.672Z,0.5132
2023-03-26T00:18:37.593Z,0.5240
2023-03-26T00:19:44.597Z,0.5381
2023-03-26T00:20:51.557Z,0.5346
2023-03-26T00:21:58.550Z,0.5236
2023-03-26T00:23:05.525Z,0.5355
2023-03-26T00:24:12.531Z,0.5348
2023-03-26T00:25:19.488Z,0.5305
2023-03-26T00:26:26.505Z,0.5279
2023-03-26T00:27:33.455Z,0.5329
2023-03-26T00:28:40.725Z,0.5545
2023-03-26T00:29:47.418Z,0.5524
2023-03-26T00:30:54.488Z,0.5551
2023-03-26T00:32:01.403Z,0.5343
2023-03-26T00:33:08.443Z,0.5183
2023-03-26T00:34:15.384Z,0.5079
2023-03-26T00:35:22.448Z,0.4965
2023-03-26T00:36:29.415Z,0.5011
2023-03-26T00:37:36.351Z,0.4918
2023-03-26T00:38:43.325Z,0.5144
2023-03-26T00:39:50.328Z,0.5426
2023-03-26T00:40:57.293Z,0.5584
2023-03-26T00:42:04.287Z,0.5618
2023-03-26T00:43:11.267Z,0.5482
2023-03-26T00:44:18.269Z,0.5565
2023-03-26T00:45:25.231Z,0.5801
2023-03-26T00:46:32.342Z,0.5824
2023-03-26T00:47:39.196Z,0.5763
2023-03-26T00:48:46.311Z,0.5701
2023-03-26T00:49:53.176Z,0.5644
2023-03-26T00:51:00.165Z,0.5529
2023-03-26T00:52:07.130Z,0.5454
2023-03-26T00:53:14.150Z,0.5322
2023-03-26T00:54:21.113Z,0.5175
2023-03-26T00:55:28.110Z,0.5072
2023-03-26T00:56:35.094Z,0.5182
2023-03-26T00:57:42.081Z,0.5237
2023-03-26T00:58:49.058Z,0.5154
2023-03-26T00:59:56.129Z,0.5174
2023-03-26T01:01:03.129Z,0.5124
2023-03-26T01:02:10.084Z,0.5141
2023-03-26T01:03:26.670Z,0.5494
2023-03-26T01:04:28.967Z,0.5553
2023-03-26T01:05:35.814Z,0.5328
2023-03-26T01:06:42.846Z,0.5332
2023-03-26T01:07:49.764Z,0.5291
2023-03-26T01:08:56.779Z,0.5188
2023-03-26T01:10:03.748Z,0.5305
2023-03-26T01:11:10.761Z,0.5318
2023-03-26T01:12:17.730Z,0.5235
2023-03-26T01:13:24.701Z,0.5372
2023-03-26T01:14:31.672Z,0.5311
2023-03-26T01:15:38.707Z,0.5208
2023-03-26T01:16:45.646Z,0.5013
2023-03-26T01:17:52.669Z,0.5057
2023-03-26T01:18:59.608Z,0.5178
2023-03-26T01:20:06.604Z,0.5189
2023-03-26T01:21:13.577Z,0.5117
2023-03-26T01:22:20.617Z,0.5163
2023-03-26T01:23:27.541Z,0.5307
2023-03-26T01:24:34.539Z,0.5224
2023-03-26T01:25:41.513Z,0.5265
2023-03-26T01:26:48.518Z,0.5065
2023-03-26T01:27:55.480Z,0.4855
2023-03-26T01:29:02.477Z,0.5001
2023-03-26T01:30:09.438Z,0.5163
2023-03-26T01:31:16.433Z,0.5236
2023-03-26T01:32:23.456Z,0.5334
2023-03-26T01:33:30.514Z,0.5372
2023-03-26T01:34:37.439Z,0.5347
2023-03-26T01:35:44.439Z,0.5236
2023-03-26T01:36:51.338Z,0.5101
2023-03-26T01:37:58.364Z,0.5139
2023-03-26T01:39:05.317Z,0.5072
2023-03-26T01:40:12.317Z,0.5019
2023-03-26T01:41:19.272Z,0.5097
2023-03-26T01:42:26.301Z,0.5234
2023-03-26T01:43:33.257Z,0.5100
2023-03-26T01:44:40.240Z,0.5092
2023-03-26T01:45:47.197Z,0.5055
2023-03-26T01:46:54.227Z,0.5075
2023-03-26T01:48:01.246Z,0.4995
2023-03-26T01:49:08.195Z,0.4992
2023-03-26T01:50:15.161Z,0.5193
2023-03-26T01:51:22.149Z,0.5256
2023-03-26T01:52:29.114Z,0.5189
2023-03-26T01:53:36.127Z,0.4954
2023-03-26T01:54:43.093Z,0.5077
2023-03-26T01:55:50.102Z,0.5003
2023-03-26T01:56:57.112Z,0.4975
2023-03-26T01:58:04.062Z,0.5071
2023-03-26T01:59:11.043Z,0.5127
2023-03-26T02:00:18.083Z,0.5065
2023-03-26T02:01:25.047Z,0.5040
2023-03-26T02:02:32.137Z,0.5045
2023-03-26T02:03:39.028Z,0.4893
2023-03-26T02:04:45.981Z,0.4825
2023-03-26T02:05:53.229Z,0.4810
2023-03-26T02:06:59.958Z,0.4889
2023-03-26T02:08:06.903Z,0.4899
2023-03-26T02:09:13.912Z,0.4973
2023-03-26T02:10:20.874Z,0.4936
2023-03-26T02:11:35.560Z,0.4892
2023-03-26T02:12:39.640Z,0.5009
2023-03-26T02:13:46.629Z,0.5121
2023-03-26T02:14:53.583Z,0.4982
2023-03-26T02:16:00.649Z,0.4954
2023-03-26T02:17:07.572Z,0.4913
2023-03-26T02:18:14.559Z,0.4899
2023-03-26T02:19:21.838Z,0.4863
2023-03-26T02:20:28.529Z,0.4772
2023-03-26T02:21:35.501Z,0.4769
2023-03-26T02:22:42.499Z,0.4828
2023-03-26T02:23:49.463Z,0.4932
2023-03-26T02:24:56.459Z,0.4878
2023-03-26T02:26:03.418Z,0.4928
2023-03-26T02:27:10.460Z,0.4977
2023-03-26T02:28:17.385Z,0.5064
2023-03-26T02:29:24.382Z,0.5047
2023-03-26T02:30:31.389Z,0.5103
2023-03-26T02:31:38.472Z,0.5084
2023-03-26T02:32:45.354Z,0.5000
2023-03-26T02:33:52.329Z,0.4990
2023-03-26T02:34:59.282Z,0.4947
2023-03-26T02:36:06.353Z,0.4905
2023-03-26T02:37:13.256Z,0.5055
2023-03-26T02:38:20.271Z,0.5086
2023-03-26T02:39:27.241Z,0.4956
2023-03-26T02:40:34.230Z,0.4805
2023-03-26T02:41:41.229Z,0.4771
2023-03-26T02:42:48.195Z,0.4744
2023-03-26T02:43:55.167Z,0.4817
2023-03-26T02:45:02.168Z,0.4976
2023-03-26T02:46:09.172Z,0.5134
2023-03-26T02:47:16.131Z,0.5053
2023-03-26T02:48:23.095Z,0.4934
2023-03-26T02:49:30.121Z,0.5025
2023-03-26T02:50:37.105Z,0.4956
2023-03-26T02:51:44.088Z,0.4971
2023-03-26T02:52:51.041Z,0.5059
2023-03-26T02:53:58.039Z,0.4981
2023-03-26T02:55:05.009Z,0.5050
2023-03-26T02:56:12.033Z,0.4990
2023-03-26T02:57:18.976Z,0.4959
2023-03-26T02:58:25.968Z,0.5082
2023-03-26T02:59:32.932Z,0.5210
2023-03-26T03:00:39.950Z,0.5062
2023-03-26T03:01:46.911Z,0.5101
2023-03-26T03:02:54.010Z,0.5086
2023-03-26T03:04:00.869Z,0.5158
2023-03-26T03:05:07.875Z,0.5085
2023-03-26T03:06:14.853Z,0.4994
2023-03-26T03:07:21.841Z,0.4879
2023-03-26T03:08:28.814Z,0.4931
2023-03-26T03:09:35.807Z,0.4807
2023-03-26T03:10:42.769Z,0.4710
2023-03-26T03:11:49.776Z,0.4850
2023-03-26T03:12:56.733Z,0.5213
2023-03-26T03:14:03.803Z,0.5265
2023-03-26T03:15:10.720Z,0.5212
2023-03-26T03:16:17.753Z,0.5269
2023-03-26T03:17:24.719Z,0.5185
2023-03-26T03:18:31.675Z,0.5009
2023-03-26T03:19:38.653Z,0.4973
2023-03-26T03:20:45.668Z,0.4951
2023-03-26T03:21:52.618Z,0.4556
2023-03-26T03:22:59.624Z,0.5011
2023-03-26T03:24:06.592Z,0.5092
2023-03-26T03:25:13.582Z,0.5075
2023-03-26T03:26:20.565Z,0.5092
2023-03-26T03:27:27.573Z,0.5130
2023-03-26T03:28:34.531Z,0.5077
2023-03-26T03:29:41.529Z,0.4997
2023-03-26T03:30:48.517Z,0.5051
2023-03-26T03:31:55.518Z,0.4906
2023-03-26T03:33:02.553Z,0.4841
2023-03-26T03:34:09.475Z,0.4898
2023-03-26T03:35:16.449Z,0.5049
2023-03-26T03:36:23.437Z,0.4895
2023-03-26T03:37:30.417Z,0.4848
2023-03-26T03:38:37.446Z,0.4899
2023-03-26T03:39:44.410Z,0.4898
2023-03-26T03:40:51.364Z,0.4983
2023-03-26T03:41:58.365Z,0.5063
2023-03-26T03:43:05.361Z,0.5123
2023-03-26T03:44:12.344Z,0.5211
2023-03-26T03:45:19.315Z,0.5051
2023-03-26T03:46:26.351Z,0.4876
2023-03-26T03:47:33.336Z,0.4940
2023-03-26T03:48:40.281Z,0.4782
2023-03-26T03:49:47.243Z,0.4701
2023-03-26T03:50:54.250Z,0.4678
2023-03-26T03:52:01.223Z,0.4824
2023-03-26T03:53:08.213Z,0.4820
2023-03-26T03:54:15.179Z,0.4772
2023-03-26T03:55:22.200Z,0.4932
2023-03-26T03:56:29.194Z,0.4854
2023-03-26T03:57:36.150Z,0.4734
2023-03-26T03:58:43.138Z,0.4568
2023-03-26T03:59:50.115Z,0.4717
2023-03-26T04:00:57.090Z,0.4759
2023-03-26T04:02:04.101Z,0.4848
2023-03-26T04:03:11.151Z,0.4892
2023-03-26T04:04:18.093Z,0.4866
2023-03-26T04:05:25.011Z,0.4931
2023-03-26T04:06:32.024Z,0.4732
2023-03-26T04:07:39.007Z,0.4761
2023-03-26T04:08:45.994Z,0.4924
2023-03-26T04:09:52.957Z,0.4948
2023-03-26T04:10:59.947Z,0.4993
2023-03-26T04:12:06.913Z,0.4922
2023-03-26T04:13:13.933Z,0.4870
2023-03-26T04:14:20.895Z,0.4842
2023-03-26T04:15:28.110Z,0.4773
2023-03-26T04:16:34.909Z,0.4822
2023-03-26T04:17:41.876Z,0.4860
2023-03-26T04:18:48.812Z,0.4732
2023-03-26T04:19:55.822Z,0.4791
2023-03-26T04:21:02.780Z,0.4635
2023-03-26T04:22:09.794Z,0.4674
2023-03-26T04:23:16.742Z,0.4780
2023-03-26T04:24:23.769Z,0.4906
2023-03-26T04:25:30.718Z,0.4931
2023-03-26T04:26:37.730Z,0.4959
2023-03-26T04:27:44.681Z,0.4882
2023-03-26T04:28:51.683Z,0.4805
2023-03-26T04:29:58.657Z,0.4818
2023-03-26T04:31:05.691Z,0.4928
2023-03-26T04:32:12.607Z,0.4965
2023-03-26T04:33:19.615Z,0.4985
2023-03-26T04:34:26.598Z,0.4870
2023-03-26T04:35:33.607Z,0.4803
2023-03-26T04:36:40.576Z,0.4803
2023-03-26T04:37:47.570Z,0.4926
2023-03-26T04:38:54.529Z,0.4937
2023-03-26T04:40:01.513Z,0.4904
2023-03-26T04:41:08.478Z,0.4876
2023-03-26T04:42:15.522Z,0.4811
2023-03-26T04:43:22.436Z,0.4858
2023-03-26T04:44:29.444Z,0.4897
2023-03-26T04:45:36.402Z,0.4802
2023-03-26T04:46:43.523Z,0.4825
2023-03-26T04:47:50.482Z,0.4792
2023-03-26T04:48:57.410Z,0.4828
2023-03-26T04:50:04.350Z,0.4833
2023-03-26T04:51:11.343Z,0.4743
2023-03-26T04:52:18.300Z,0.5098
2023-03-26T04:53:25.295Z,0.5248
2023-03-26T04:54:32.289Z,0.5397
2023-03-26T04:55:39.290Z,0.5414
2023-03-26T04:56:46.282Z,0.5210
2023-03-26T04:57:53.252Z,0.5179
2023-03-26T04:59:00.187Z,0.4966
2023-03-26T05:00:07.190Z,0.4843
2023-03-26T05:01:14.206Z,0.4726
2023-03-26T05:02:21.164Z,0.4665
2023-03-26T05:03:28.118Z,0.4644
2023-03-26T05:04:35.239Z,0.4729
2023-03-26T05:05:42.146Z,0.4889
2023-03-26T05:06:49.162Z,0.4858
2023-03-26T05:07:56.135Z,0.4853
2023-03-26T05:09:03.150Z,0.5047
2023-03-26T05:10:10.093Z,0.5104
2023-03-26T05:11:17.096Z,0.4969
2023-03-26T05:12:24.062Z,0.5070
2023-03-26T05:13:31.080Z,0.4907
2023-03-26T05:14:38.046Z,0.4845
2023-03-26T05:15:45.048Z,0.4828
2023-03-26T05:16:52.014Z,0.4927
2023-03-26T05:17:59.124Z,0.5018
2023-03-26T05:19:05.960Z,0.4845
2023-03-26T05:20:12.981Z,0.4925
2023-03-26T05:21:19.945Z,0.4992
2023-03-26T05:22:26.942Z,0.4843
2023-03-26T05:23:33.897Z,0.4881
2023-03-26T05:24:40.902Z,0.4943
2023-03-26T05:25:47.883Z,0.4910
2023-03-26T05:26:54.896Z,0.4848
2023-03-26T05:28:01.828Z,0.4870
2023-03-26T05:29:08.839Z,0.4832
2023-03-26T05:30:15.798Z,0.4925
2023-03-26T05:31:22.810Z,0.5119
2023-03-26T05:32:29.829Z,0.5029
2023-03-26T05:33:36.850Z,0.5017
2023-03-26T05:34:43.724Z,0.4959
2023-03-26T05:35:50.731Z,0.4920
2023-03-26T05:36:57.705Z,0.4782
2023-03-26T05:38:04.692Z,0.4923
2023-03-26T05:39:11.662Z,0.4934
2023-03-26T05:40:18.657Z,0.4841
2023-03-26T05:41:25.638Z,0.4784
2023-03-26T05:42:32.644Z,0.4727
2023-03-26T05:43:39.686Z,0.4733
2023-03-26T05:44:46.597Z,0.4691
2023-03-26T05:45:53.604Z,0.4714
2023-03-26T05:47:00.572Z,0.4840
2023-03-26T05:48:07.577Z,0.4767
2023-03-26T05:49:14.550Z,0.4786
2023-03-26T05:50:21.506Z,0.4901
2023-03-26T05:51:28.500Z,0.4834
2023-03-26T05:52:35.484Z,0.4849
2023-03-26T05:53:42.466Z,0.4797
2023-03-26T05:54:49.454Z,0.4862
2023-03-26T05:55:56.445Z,0.5115
2023-03-26T05:57:03.418Z,0.5121
2023-03-26T05:58:10.450Z,0.5129
2023-03-26T05:59:17.373Z,0.4971
2023-03-26T06:00:24.385Z,0.4519
2023-03-26T06:01:31.343Z,0.4799
2023-03-26T06:02:38.341Z,0.4799
2023-03-26T06:03:45.369Z,0.4744
2023-03-26T06:04:52.323Z,0.4823
2023-03-26T06:05:59.275Z,0.4905
2023-03-26T06:07:06.282Z,0.4807
2023-03-26T06:08:13.289Z,0.4835
2023-03-26T06:09:20.217Z,0.4862
2023-03-26T06:10:27.230Z,0.4787
2023-03-26T06:11:34.204Z,0.4702
2023-03-26T06:12:41.171Z,0.4665
2023-03-26T06:13:48.144Z,0.4679
2023-03-26T06:14:55.111Z,0.4686
2023-03-26T06:16:02.222Z,0.4686
2023-03-26T06:17:09.091Z,0.4676
2023-03-26T06:18:16.105Z,0.4703
2023-03-26T06:19:23.058Z,0.4713
2023-03-26T06:20:30.058Z,0.4646
2023-03-26T06:21:37.026Z,0.4712
2023-03-26T06:22:44.039Z,0.4820
2023-03-26T06:23:51.004Z,0.4830
2023-03-26T06:24:58.012Z,0.4846
2023-03-26T06:26:04.985Z,0.4869
2023-03-26T06:27:11.978Z,0.4878
2023-03-26T06:28:18.930Z,0.4888
2023-03-26T06:29:25.954Z,0.4896
2023-03-26T06:30:32.924Z,0.4848
2023-03-26T06:31:39.918Z,0.4717
2023-03-26T06:32:46.994Z,0.4566
2023-03-26T06:33:53.877Z,0.4678
2023-03-26T06:35:00.844Z,0.4713
2023-03-26T06:36:07.883Z,0.4864
2023-03-26T06:37:14.819Z,0.5008
2023-03-26T06:38:21.815Z,0.5087
2023-03-26T06:39:28.767Z,0.5035
2023-03-26T06:40:35.767Z,0.5146
2023-03-26T06:41:42.750Z,0.5177
2023-03-26T06:43:09.586Z,0.5118
2023-03-26T06:44:01.500Z,0.5117
2023-03-26T06:45:08.491Z,0.5023
2023-03-26T06:46:15.483Z,0.5052
2023-03-26T06:47:22.485Z,0.5090
2023-03-26T06:48:29.419Z,0.5237
2023-03-26T06:49:36.424Z,0.5188
2023-03-26T06:50:43.409Z,0.5213
2023-03-26T06:51:50.398Z,0.5289
2023-03-26T06:52:57.355Z,0.5236
2023-03-26T06:54:04.358Z,0.5278
2023-03-26T06:55:11.350Z,0.5197
2023-03-26T06:56:18.343Z,0.5144
2023-03-26T06:57:25.296Z,0.5094
2023-03-26T06:58:32.291Z,0.5171
2023-03-26T06:59:39.247Z,0.5173
2023-03-26T07:00:46.321Z,0.5186
2023-03-26T07:01:53.241Z,0.5194
2023-03-26T07:03:00.251Z,0.5257
2023-03-26T07:04:07.267Z,0.5408
2023-03-26T07:05:14.198Z,0.5241
2023-03-26T07:06:21.177Z,0.5129
2023-03-26T07:07:28.177Z,0.5125
2023-03-26T07:08:35.130Z,0.5330
2023-03-26T07:09:42.119Z,0.5190
2023-03-26T07:10:49.080Z,0.5170
2023-03-26T07:11:56.100Z,0.5177
2023-03-26T07:13:03.072Z,0.5162
2023-03-26T07:14:10.077Z,0.5078
2023-03-26T07:15:17.021Z,0.5133
2023-03-26T07:16:24.062Z,0.5261
2023-03-26T07:17:31.069Z,0.5325
2023-03-26T07:18:38.012Z,0.5443
2023-03-26T07:19:44.975Z,0.5426
2023-03-26T07:20:52.082Z,0.5404
2023-03-26T07:21:58.928Z,0.5484
2023-03-26T07:23:05.932Z,0.5551
2023-03-26T07:24:12.902Z,0.5489
2023-03-26T07:25:19.929Z,0.5523
2023-03-26T07:26:26.887Z,0.5607
2023-03-26T07:27:33.860Z,0.5513
2023-03-26T07:28:40.849Z,0.5399
2023-03-26T07:29:47.854Z,0.5248
2023-03-26T07:30:54.948Z,0.5097
2023-03-26T07:32:01.875Z,0.5078
2023-03-26T07:33:08.756Z,0.5140
2023-03-26T07:34:15.756Z,0.5277
2023-03-26T07:35:22.737Z,0.5367
2023-03-26T07:36:29.758Z,0.5272
2023-03-26T07:37:36.729Z,0.5275
2023-03-26T07:38:43.697Z,0.5279
2023-03-26T07:39:50.654Z,0.5427
2023-03-26T07:40:57.664Z,0.5240
2023-03-26T07:42:04.632Z,0.5294
2023-03-26T07:43:11.635Z,0.5275
2023-03-26T07:44:18.590Z,0.5320
2023-03-26T07:45:25.586Z,0.5328
2023-03-26T07:46:32.544Z,0.5170
2023-03-26T07:47:39.582Z,0.5132
2023-03-26T07:48:46.529Z,0.5090
2023-03-26T07:49:53.532Z,0.5140
2023-03-26T07:51:00.480Z,0.5110
2023-03-26T07:52:07.482Z,0.5152
2023-03-26T07:53:14.452Z,0.5092
2023-03-26T07:54:21.454Z,0.5102
2023-03-26T07:55:28.427Z,0.5265
2023-03-26T07:56:35.555Z,0.5261
2023-03-26T07:57:42.437Z,0.5314
2023-03-26T07:58:49.386Z,0.5366
2023-03-26T07:59:56.327Z,0.5358
2023-03-26T08:01:03.341Z,0.5417
2023-03-26T08:02:10.305Z,0.5404
2023-03-26T08:03:17.569Z,0.5418
2023-03-26T08:04:25.940Z,0.5464
2023-03-26T08:05:36.051Z,0.5570
2023-03-26T08:06:43.020Z,0.5625
2023-03-26T08:07:50.027Z,0.5533
2023-03-26T08:08:56.978Z,0.5257
2023-03-26T08:10:04.023Z,0.5209
2023-03-26T08:11:10.953Z,0.5068
2023-03-26T08:12:17.943Z,0.5206
2023-03-26T08:13:24.908Z,0.5229
2023-03-26T08:14:31.916Z,0.5272
2023-03-26T08:15:38.945Z,0.5186
2023-03-26T08:16:45.919Z,0.5328
2023-03-26T08:17:52.929Z,0.5418
2023-03-26T08:18:59.840Z,0.5515
2023-03-26T08:20:06.834Z,0.5572
2023-03-26T08:21:13.835Z,0.5423
2023-03-26T08:22:20.794Z,0.5387
2023-03-26T08:23:27.808Z,0.5400
2023-03-26T08:24:34.750Z,0.5299
2023-03-26T08:25:41.703Z,0.5364
2023-03-26T08:26:48.730Z,0.5616
2023-03-26T08:27:55.709Z,0.5500
2023-03-26T08:29:02.673Z,0.5210
2023-03-26T08:30:09.661Z,0.5055
2023-03-26T08:31:16.677Z,0.5117
2023-03-26T08:32:23.625Z,0.5062
2023-03-26T08:33:30.646Z,0.5051
2023-03-26T08:34:37.575Z,0.5052
2023-03-26T08:35:44.593Z,0.5097
2023-03-26T08:36:51.536Z,0.5166
2023-03-26T08:37:58.550Z,0.5266
2023-03-26T08:39:05.517Z,0.5187
2023-03-26T08:40:12.504Z,0.5183
2023-03-26T08:41:19.474Z,0.5298
2023-03-26T08:42:26.479Z,0.5448
2023-03-26T08:43:33.475Z,0.5654
2023-03-26T08:44:40.466Z,0.5500
2023-03-26T08:45:47.413Z,0.5249
2023-03-26T08:46:54.482Z,0.5180
2023-03-26T08:48:01.419Z,0.5213
2023-03-26T08:49:08.396Z,0.5369
2023-03-26T08:50:15.359Z,0.5561
2023-03-26T08:51:22.358Z,0.5473
2023-03-26T08:52:29.329Z,0.5499
2023-03-26T08:53:36.319Z,0.5539
2023-03-26T08:54:43.320Z,0.5391
2023-03-26T08:55:50.299Z,0.5264
2023-03-26T08:56:57.296Z,0.5219
2023-03-26T08:58:04.287Z,0.5192
2023-03-26T08:59:11.231Z,0.5097
2023-03-26T09:00:18.234Z,0.5160
2023-03-26T09:01:25.232Z,0.5212
2023-03-26T09:02:32.249Z,0.5181
2023-03-26T09:03:39.208Z,0.5123
2023-03-26T09:04:46.169Z,0.5179
2023-03-26T09:05:53.117Z,0.5112
2023-03-26T09:07:00.132Z,0.5144
2023-03-26T09:08:07.165Z,0.5322
2023-03-26T09:09:19.250Z,0.5389
2023-03-26T09:10:25.909Z,0.5214
2023-03-26T09:11:32.908Z,0.5234
2023-03-26T09:12:39.875Z,0.5213
2023-03-26T09:13:46.885Z,0.5308
2023-03-26T09:14:53.846Z,0.5528
2023-03-26T09:16:00.851Z,0.5459
2023-03-26T09:17:07.834Z,0.5279
2023-03-26T09:18:14.816Z,0.5287
2023-03-26T09:19:21.801Z,0.5316
2023-03-26T09:20:28.816Z,0.5186
2023-03-26T09:21:35.720Z,0.5161
2023-03-26T09:22:42.725Z,0.5143
2023-03-26T09:23:49.698Z,0.5165
2023-03-26T09:24:56.711Z,0.5120
2023-03-26T09:26:03.659Z,0.5256
2023-03-26T09:27:10.643Z,0.5155
2023-03-26T09:28:17.609Z,0.5026
2023-03-26T09:29:24.604Z,0.5117
2023-03-26T09:30:31.591Z,0.5203
2023-03-26T09:31:38.623Z,0.5120
2023-03-26T09:32:45.600Z,0.5036
2023-03-26T09:33:52.526Z,0.5021
2023-03-26T09:34:59.484Z,0.4987
2023-03-26T09:36:06.508Z,0.5083
2023-03-26T09:37:13.467Z,0.5193
2023-03-26T09:38:20.484Z,0.5248
2023-03-26T09:39:27.427Z,0.5109
2023-03-26T09:40:34.413Z,0.5150
2023-03-26T09:41:41.399Z,0.5308
2023-03-26T09:42:48.397Z,0.5351
2023-03-26T09:43:55.348Z,0.5187
2023-03-26T09:45:02.345Z,0.5134
2023-03-26T09:46:09.345Z,0.4928
2023-03-26T09:47:16.325Z,0.4850
2023-03-26T09:48:23.269Z,0.4911
2023-03-26T09:49:30.266Z,0.5044
2023-03-26T09:50:37.221Z,0.5207
2023-03-26T09:51:44.256Z,0.5393
2023-03-26T09:52:51.208Z,0.5255
2023-03-26T09:53:58.186Z,0.5230
2023-03-26T09:55:05.164Z,0.5294
2023-03-26T09:56:12.156Z,0.5404
2023-03-26T09:57:19.260Z,0.5523
2023-03-26T09:58:26.159Z,0.5514
2023-03-26T09:59:33.106Z,0.5479
2023-03-26T10:00:40.113Z,0.5402
2023-03-26T10:01:47.043Z,0.5390
2023-03-26T10:02:54.089Z,0.5273
2023-03-26T10:04:01.011Z,0.5118
2023-03-26T10:05:08.089Z,0.5191
2023-03-26T10:06:14.962Z,0.5180
2023-03-26T10:07:21.968Z,0.5163
2023-03-26T10:08:31.632Z,0.5204
2023-03-26T10:09:40.727Z,0.5311
2023-03-26T10:10:47.663Z,0.5233
2023-03-26T10:11:54.665Z,0.5213
2023-03-26T10:13:13.658Z,0.5060
2023-03-26T10:14:13.426Z,0.5078
2023-03-26T10:15:20.393Z,0.5142
2023-03-26T10:16:27.407Z,0.5244
2023-03-26T10:17:34.417Z,0.5337
2023-03-26T10:18:41.332Z,0.5411
2023-03-26T10:19:48.301Z,0.5372
2023-03-26T10:20:55.476Z,0.5472
2023-03-26T10:22:02.246Z,0.5476
2023-03-26T10:23:09.244Z,0.5404
2023-03-26T10:24:16.209Z,0.5379
2023-03-26T10:25:23.238Z,0.5402
2023-03-26T10:26:30.168Z,0.5433
2023-03-26T10:27:37.173Z,0.5363
2023-03-26T10:28:44.129Z,0.5384
2023-03-26T10:29:51.131Z,0.5458
2023-03-26T10:30:58.248Z,0.5494
2023-03-26T10:32:05.096Z,0.5630
2023-03-26T10:33:12.045Z,0.5533
2023-03-26T10:34:28.571Z,0.5540
2023-03-26T10:35:30.804Z,0.5512
2023-03-26T10:36:37.804Z,0.5364
2023-03-26T10:37:45.557Z,0.5278
2023-03-26T10:38:51.752Z,0.5389
2023-03-26T10:39:58.712Z,0.5510
2023-03-26T10:41:05.709Z,0.5557
2023-03-26T10:42:12.686Z,0.5473
2023-03-26T10:43:19.686Z,0.5432
2023-03-26T10:44:26.635Z,0.5355
2023-03-26T10:45:33.634Z,0.5399
2023-03-26T10:46:40.619Z,0.5326
2023-03-26T10:47:47.630Z,0.5270
2023-03-26T10:48:54.563Z,0.5206
2023-03-26T10:50:01.554Z,0.5215
2023-03-26T10:51:08.500Z,0.5199
2023-03-26T10:52:15.498Z,0.5130
2023-03-26T10:53:22.467Z,0.5116
2023-03-26T10:54:29.467Z,0.4992
2023-03-26T10:55:36.436Z,0.4941
2023-03-26T10:56:43.445Z,0.4981
2023-03-26T10:57:50.380Z,0.5005
2023-03-26T10:58:57.395Z,0.4846
2023-03-26T11:00:04.327Z,0.4889
2023-03-26T11:01:11.352Z,0.4958
2023-03-26T11:02:18.280Z,0.5086
2023-03-26T11:03:25.279Z,0.5212
2023-03-26T11:04:32.254Z,0.5157
2023-03-26T11:05:39.310Z,0.5070
2023-03-26T11:06:46.202Z,0.5153
2023-03-26T11:07:53.194Z,0.5244
2023-03-26T11:09:00.160Z,0.5218
2023-03-26T11:10:07.184Z,0.5290
2023-03-26T11:11:14.121Z,0.5214
2023-03-26T11:12:27.280Z,0.5329
2023-03-26T11:13:32.853Z,0.5439
2023-03-26T11:14:39.854Z,0.5510
2023-03-26T11:15:46.859Z,0.5368
2023-03-26T11:16:53.823Z,0.5306
2023-03-26T11:18:00.799Z,0.5160
2023-03-26T11:19:07.774Z,0.5188
2023-03-26T11:20:14.745Z,0.5158
2023-03-26T11:21:21.743Z,0.5290
2023-03-26T11:22:28.882Z,0.5251
2023-03-26T11:23:35.691Z,0.5259
2023-03-26T11:24:42.656Z,0.5227
2023-03-26T11:25:49.655Z,0.5239
2023-03-26T11:26:56.626Z,0.5259
2023-03-26T11:28:03.613Z,0.5271
2023-03-26T11:29:32.891Z,0.5168
2023-03-26T11:30:22.350Z,0.5001
2023-03-26T11:31:29.351Z,0.5026
2023-03-26T11:32:36.345Z,0.5100
2023-03-26T11:33:45.597Z,0.5067
2023-03-26T11:34:55.084Z,0.5146
2023-03-26T11:36:02.031Z,0.5294
2023-03-26T11:37:09.011Z,0.5327
2023-03-26T11:38:16.005Z,0.5326
2023-03-26T11:39:22.974Z,0.5475
2023-03-26T11:40:29.930Z,0.5544
2023-03-26T11:41:36.925Z,0.5526
2023-03-26T11:42:43.890Z,0.5482
2023-03-26T11:43:50.903Z,0.5579
2023-03-26T11:44:57.870Z,0.5551
2023-03-26T11:46:04.882Z,0.5533
2023-03-26T11:47:11.827Z,0.5552
2023-03-26T11:48:18.804Z,0.5527
2023-03-26T11:49:25.786Z,0.5468
2023-03-26T11:50:32.782Z,0.5319
2023-03-26T11:51:39.735Z,0.5284
2023-03-26T11:52:47.154Z,0.5148
2023-03-26T11:53:53.690Z,0.5218
2023-03-26T11:55:00.700Z,0.5194
2023-03-26T11:56:07.732Z,0.5059
2023-03-26T11:57:14.680Z,0.5070
2023-03-26T11:58:21.619Z,0.5003
2023-03-26T11:59:28.609Z,0.5096
2023-03-26T12:00:35.556Z,0.5307
2023-03-26T12:01:42.597Z,0.5309
2023-03-26T12:02:49.600Z,0.5242
2023-03-26T12:03:56.549Z,0.5317
2023-03-26T12:05:03.459Z,0.5244
2023-03-26T12:06:10.471Z,0.5219
2023-03-26T12:07:17.438Z,0.5254
2023-03-26T12:08:24.450Z,0.5341
2023-03-26T12:09:31.385Z,0.5607
2023-03-26T12:10:38.630Z,0.5567
2023-03-26T12:11:45.332Z,0.5330
2023-03-26T12:12:52.355Z,0.5224
2023-03-26T12:13:59.303Z,0.5287
2023-03-26T12:15:06.302Z,0.5361
2023-03-26T12:16:13.331Z,0.5463
2023-03-26T12:17:20.248Z,0.5480
2023-03-26T12:18:32.028Z,0.5518
2023-03-26T12:19:39.011Z,0.5449
2023-03-26T12:20:45.975Z,0.5511
2023-03-26T12:21:52.951Z,0.5383
2023-03-26T12:22:59.909Z,0.5373
2023-03-26T12:24:06.915Z,0.5333
2023-03-26T12:25:13.890Z,0.5301
2023-03-26T12:26:20.863Z,0.5206
2023-03-26T12:27:27.822Z,0.5293
2023-03-26T12:28:34.819Z,0.5307
2023-03-26T12:29:41.788Z,0.5199
2023-03-26T12:30:48.799Z,0.5228
2023-03-26T12:31:55.943Z,0.5302
2023-03-26T12:33:02.773Z,0.5251
2023-03-26T12:34:09.707Z,0.5213
2023-03-26T12:35:16.701Z,0.5147
2023-03-26T12:36:23.668Z,0.5077
2023-03-26T12:37:30.653Z,0.5002
2023-03-26T12:38:37.621Z,0.5042
2023-03-26T12:40:09.944Z,0.5054
2023-03-26T12:40:56.455Z,0.5070
2023-03-26T12:43:40.603Z,0.5163
2023-03-26T12:44:54.027Z,0.5146
2023-03-26T12:44:55.724Z,0.5141
2023-03-26T12:45:38.673Z,0.5198
2023-03-26T12:47:58.245Z,0.5160
2023-03-26T12:48:03.889Z,0.5165
2023-03-26T12:49:09.237Z,0.5205
2023-03-26T12:50:16.105Z,0.5290
2023-03-26T12:51:23.112Z,0.5240
2023-03-26T12:52:30.076Z,0.5133
2023-03-26T12:53:37.087Z,0.5123
2023-03-26T12:54:44.024Z,0.5221
2023-03-26T12:55:51.033Z,0.5199
2023-03-26T12:57:11.401Z,0.5172
2023-03-26T12:58:14.031Z,0.5123
2023-03-26T12:59:21.533Z,0.5072
2023-03-26T13:00:28.513Z,0.4967
2023-03-26T13:01:35.508Z,0.5022
2023-03-26T13:02:42.519Z,0.5035
2023-03-26T13:03:51.821Z,0.5043
2023-03-26T13:05:06.425Z,0.5041
2023-03-26T13:06:12.970Z,0.5191
2023-03-26T13:07:19.949Z,0.5175
2023-03-26T13:08:26.908Z,0.5144
2023-03-26T13:09:33.926Z,0.5194
2023-03-26T13:10:40.906Z,0.5223
2023-03-26T13:11:47.855Z,0.5240
2023-03-26T13:12:54.842Z,0.5283
2023-03-26T13:14:01.814Z,0.5384
2023-03-26T13:15:08.870Z,0.5443
2023-03-26T13:16:15.850Z,0.5522
2023-03-26T13:17:22.923Z,0.5587
2023-03-26T13:18:29.803Z,0.5578
2023-03-26T13:19:36.782Z,0.5579
2023-03-26T13:20:43.752Z,0.5660
2023-03-26T13:21:53.017Z,0.5709
2023-03-26T13:23:02.505Z,0.5691
2023-03-26T13:24:09.505Z,0.5669
2023-03-26T13:25:16.465Z,0.5751
2023-03-26T13:26:23.453Z,0.5846
2023-03-26T13:27:30.413Z,0.5871
2023-03-26T13:28:37.403Z,0.5817
2023-03-26T13:29:44.375Z,0.5828
2023-03-26T13:30:51.409Z,0.5944
2023-03-26T13:31:58.361Z,0.5938
2023-03-26T13:33:05.378Z,0.5923
2023-03-26T13:34:12.303Z,0.5980
2023-03-26T13:35:19.326Z,0.6018
2023-03-26T13:36:26.317Z,0.5854
2023-03-26T13:37:33.262Z,0.5809
2023-03-26T13:38:40.201Z,0.5821
2023-03-26T13:39:47.230Z,0.5773
2023-03-26T13:40:54.338Z,0.5620
2023-03-26T13:42:01.190Z,0.5503
2023-03-26T13:43:08.121Z,0.5335
2023-03-26T13:44:15.167Z,0.5162
2023-03-26T13:45:22.227Z,0.5287
2023-03-26T13:46:29.124Z,0.5273
2023-03-26T13:47:36.075Z,0.5334
2023-03-26T13:48:43.036Z,0.5356
2023-03-26T13:49:49.997Z,0.5326
2023-03-26T13:50:57.182Z,0.5334
2023-03-26T13:52:03.965Z,0.5630
2023-03-26T13:53:10.989Z,0.5737
2023-03-26T13:54:17.912Z,0.5766
2023-03-26T13:55:24.907Z,0.5751
2023-03-26T13:56:31.933Z,0.5670
2023-03-26T13:57:38.924Z,0.5592